createdAt,value
2023-02-09T00:01:24.800Z,-4.61
2023-02-09T00:03:51.958Z,-4.88
2023-02-09T00:06:20.696Z,-4.74
2023-02-09T00:08:47.551Z,-4.76
2023-02-09T00:11:46.901Z,-4.77
2023-02-09T00:14:16.573Z,-4.75
2023-02-09T00:16:43.716Z,-4.39
2023-02-09T00:19:12.020Z,-4.38
2023-02-09T00:21:39.884Z,-4.54
2023-02-09T00:24:07.538Z,-4.62
2023-02-09T00:26:34.469Z,-4.69
2023-02-09T00:29:00.981Z,-4.80
2023-02-09T00:31:27.599Z,-4.82
2023-02-09T00:33:54.341Z,-4.97
2023-02-09T00:36:21.362Z,-4.87
2023-02-09T00:38:47.868Z,-5.02
2023-02-09T00:41:16.175Z,-4.53
2023-02-09T00:43:43.041Z,-4.64
2023-02-09T00:46:09.970Z,-4.92
2023-02-09T00:48:36.537Z,-4.77
2023-02-09T00:51:03.329Z,-4.87
2023-02-09T00:53:29.844Z,-5.09
2023-02-09T00:55:56.622Z,-5.12
2023-02-09T00:58:23.101Z,-4.81
2023-02-09T01:00:49.905Z,-4.69
2023-02-09T01:03:16.436Z,-4.79
2023-02-09T01:05:43.520Z,-4.75
2023-02-09T01:08:11.646Z,-4.62
2023-02-09T01:10:38.650Z,-4.42
2023-02-09T01:13:05.804Z,-4.41
2023-02-09T01:15:32.484Z,-4.61
2023-02-09T01:17:59.658Z,-4.98
2023-02-09T01:20:26.442Z,-4.94
2023-02-09T01:22:52.898Z,-4.97
2023-02-09T01:25:19.369Z,-5.13
2023-02-09T01:27:46.231Z,-5.15
2023-02-09T01:30:13.219Z,-5.22
2023-02-09T01:32:39.655Z,-5.10
2023-02-09T01:35:06.596Z,-5.12
2023-02-09T01:37:34.514Z,-5.21
2023-02-09T01:40:01.504Z,-5.04
2023-02-09T01:42:28.084Z,-5.30
2023-02-09T01:45:42.051Z,-5.35
2023-02-09T01:48:09.200Z,-5.38
2023-02-09T01:50:40.998Z,-5.26
2023-02-09T01:53:08.232Z,-5.29
2023-02-09T01:55:40.103Z,-5.42
2023-02-09T01:58:11.961Z,-5.44
2023-02-09T02:00:38.494Z,-5.35
2023-02-09T02:03:09.977Z,-5.36
2023-02-09T02:05:39.287Z,-5.32
2023-02-09T02:08:21.289Z,-5.23
2023-02-09T02:10:47.957Z,-5.18
2023-02-09T02:13:14.522Z,-5.08
2023-02-09T02:16:04.818Z,-4.97
2023-02-09T02:18:49.643Z,-4.83
2023-02-09T02:21:41.594Z,-5.27
2023-02-09T02:24:42.082Z,-5.05
2023-02-09T02:27:32.300Z,-5.00
2023-02-09T02:30:17.030Z,-5.18
2023-02-09T02:32:59.390Z,-5.06
2023-02-09T02:35:40.968Z,-5.11
2023-02-09T02:38:37.877Z,-5.16
2023-02-09T02:41:26.277Z,-5.06
2023-02-09T02:44:17.198Z,-5.14
2023-02-09T02:46:51.944Z,-5.20
2023-02-09T02:49:34.520Z,-5.24
2023-02-09T02:52:04.857Z,-5.29
2023-02-09T02:54:46.648Z,-5.07
2023-02-09T02:57:17.954Z,-5.38
2023-02-09T02:59:55.223Z,-5.23
2023-02-09T03:02:26.285Z,-5.27
2023-02-09T03:04:55.606Z,-5.25
2023-02-09T03:07:22.114Z,-5.44
2023-02-09T03:09:50.688Z,-5.52
2023-02-09T03:12:40.156Z,-5.46
2023-02-09T03:15:16.185Z,-5.26
2023-02-09T03:17:52.216Z,-5.06
2023-02-09T03:20:37.390Z,-5.53
2023-02-09T03:23:16.442Z,-5.61
2023-02-09T03:25:48.470Z,-5.46
2023-02-09T03:28:23.737Z,-5.42
2023-02-09T03:30:52.972Z,-5.42
2023-02-09T03:33:26.779Z,-5.48
2023-02-09T03:35:58.179Z,-5.39
2023-02-09T03:38:25.135Z,-5.53
2023-02-09T03:40:51.529Z,-5.32
2023-02-09T03:43:17.954Z,-5.54
2023-02-09T03:45:44.421Z,-5.51
2023-02-09T03:48:10.885Z,-5.41
2023-02-09T03:50:37.521Z,-5.63
2023-02-09T03:53:08.284Z,-5.45
2023-02-09T03:55:35.817Z,-5.75
2023-02-09T03:58:02.254Z,-5.62
2023-02-09T04:00:28.741Z,-5.49
2023-02-09T04:02:56.350Z,-5.47
2023-02-09T04:05:23.040Z,-5.45
2023-02-09T04:07:49.779Z,-5.60
2023-02-09T04:10:16.219Z,-5.45
2023-02-09T04:12:42.646Z,-5.63
2023-02-09T04:15:09.587Z,-5.67
2023-02-09T04:17:36.010Z,-5.83
2023-02-09T04:20:02.432Z,-5.83
2023-02-09T04:22:28.876Z,-5.53
2023-02-09T04:24:55.267Z,-5.65
2023-02-09T04:27:21.903Z,-5.73
2023-02-09T04:29:48.311Z,-5.69
2023-02-09T04:32:20.704Z,-5.41
2023-02-09T04:34:47.106Z,-5.58
2023-02-09T04:37:13.503Z,-5.79
2023-02-09T04:39:39.942Z,-5.85
2023-02-09T04:42:06.361Z,-5.65
2023-02-09T04:44:32.804Z,-5.51
2023-02-09T04:46:59.221Z,-5.47
2023-02-09T04:49:25.860Z,-5.56
2023-02-09T04:51:52.307Z,-5.73
2023-02-09T04:54:18.721Z,-5.59
2023-02-09T04:56:45.110Z,-5.74
2023-02-09T04:59:30.147Z,-5.66
2023-02-09T05:01:56.579Z,-5.63
2023-02-09T05:04:23.078Z,-5.77
2023-02-09T05:06:49.498Z,-5.62
2023-02-09T05:09:15.934Z,-5.58
2023-02-09T05:11:42.342Z,-5.77
2023-02-09T05:14:08.788Z,-5.61
2023-02-09T05:16:36.013Z,-5.77
2023-02-09T05:19:03.516Z,-5.69
2023-02-09T05:21:29.925Z,-5.64
2023-02-09T05:23:56.356Z,-5.87
2023-02-09T05:26:22.791Z,-5.97
2023-02-09T05:28:49.242Z,-5.85
2023-02-09T05:31:16.532Z,-6.08
2023-02-09T05:33:43.151Z,-5.92
2023-02-09T05:36:09.948Z,-5.95
2023-02-09T05:38:36.587Z,-5.90
2023-02-09T05:41:08.923Z,-5.80
2023-02-09T05:43:35.907Z,-5.95
2023-02-09T05:46:03.296Z,-6.12
2023-02-09T05:48:30.028Z,-6.06
2023-02-09T05:51:01.529Z,-5.92
2023-02-09T05:53:27.963Z,-6.00
2023-02-09T05:55:54.352Z,-6.03
2023-02-09T05:58:20.780Z,-6.32
2023-02-09T06:00:47.449Z,-6.42
2023-02-09T06:03:14.090Z,-6.00
2023-02-09T06:05:40.666Z,-6.69
2023-02-09T06:08:07.119Z,-6.39
2023-02-09T06:10:33.590Z,-6.46
2023-02-09T06:13:00.088Z,-6.15
2023-02-09T06:15:26.514Z,-6.07
2023-02-09T06:17:52.961Z,-5.95
2023-02-09T06:20:19.533Z,-5.94
2023-02-09T06:22:46.020Z,-5.80
2023-02-09T06:25:12.624Z,-5.90
2023-02-09T06:27:39.072Z,-5.85
2023-02-09T06:30:06.923Z,-5.77
2023-02-09T06:32:33.362Z,-5.72
2023-02-09T06:34:59.766Z,-5.70
2023-02-09T06:37:26.279Z,-5.87
2023-02-09T06:39:52.794Z,-5.68
2023-02-09T06:42:19.396Z,-5.55
2023-02-09T06:44:45.882Z,-5.67
2023-02-09T06:47:12.332Z,-5.57
2023-02-09T06:49:38.799Z,-5.55
2023-02-09T06:52:05.587Z,-5.20
2023-02-09T06:54:32.202Z,-5.20
2023-02-09T06:56:58.697Z,-5.19
2023-02-09T06:59:25.259Z,-5.21
2023-02-09T07:01:54.813Z,-5.58
2023-02-09T07:04:21.803Z,-5.24
2023-02-09T07:06:48.223Z,-5.26
2023-02-09T07:09:14.692Z,-5.16
2023-02-09T07:11:41.135Z,-5.34
2023-02-09T07:14:07.578Z,-5.22
2023-02-09T07:16:34.070Z,-5.46
2023-02-09T07:19:01.134Z,-5.32
2023-02-09T07:21:27.757Z,-5.26
2023-02-09T07:23:54.327Z,-5.35
2023-02-09T07:26:20.828Z,-5.00
2023-02-09T07:28:48.108Z,-5.19
2023-02-09T07:31:16.104Z,-4.80
2023-02-09T07:33:42.931Z,-5.14
2023-02-09T07:36:13.193Z,-5.12
2023-02-09T07:38:40.610Z,-5.31
2023-02-09T07:41:12.678Z,-4.78
2023-02-09T07:43:39.099Z,-4.94
2023-02-09T07:46:07.265Z,-4.82
2023-02-09T07:48:34.589Z,-4.68
2023-02-09T07:51:01.591Z,-4.46
2023-02-09T07:53:28.702Z,-4.16
2023-02-09T07:55:55.278Z,-4.12
2023-02-09T07:58:22.002Z,-4.06
2023-02-09T08:00:50.337Z,-3.58
2023-02-09T08:03:19.665Z,-3.05
2023-02-09T08:06:00.426Z,-1.97
2023-02-09T08:08:26.928Z,-1.32
2023-02-09T08:10:55.550Z,-1.06
2023-02-09T08:13:23.215Z,-0.82
2023-02-09T08:15:58.257Z,-0.77
2023-02-09T08:18:30.750Z,-0.22
2023-02-09T08:21:03.197Z,-0.21
2023-02-09T08:23:32.994Z,0.19
2023-02-09T08:26:02.852Z,0.49
2023-02-09T08:28:42.899Z,0.40
2023-02-09T08:31:15.308Z,0.74
2023-02-09T08:33:42.890Z,0.96
2023-02-09T08:36:11.243Z,0.85
2023-02-09T08:38:38.060Z,0.73
2023-02-09T08:41:09.432Z,0.49
2023-02-09T08:43:36.385Z,1.45
2023-02-09T08:46:04.107Z,1.32
2023-02-09T08:48:35.670Z,1.64
2023-02-09T08:51:02.630Z,0.88
2023-02-09T08:53:29.378Z,0.95
2023-02-09T08:55:55.982Z,1.41
2023-02-09T08:58:22.459Z,1.85
2023-02-09T09:00:48.918Z,1.05
2023-02-09T09:03:16.570Z,2.07
2023-02-09T09:05:43.022Z,3.15
2023-02-09T09:08:12.097Z,2.85
2023-02-09T09:10:38.515Z,3.26
2023-02-09T09:13:04.965Z,4.16
2023-02-09T09:15:31.551Z,2.81
2023-02-09T09:17:57.968Z,2.97
2023-02-09T09:20:24.405Z,1.99
2023-02-09T09:25:18.564Z,1.82
2023-02-09T09:27:45.145Z,3.37
2023-02-09T09:30:12.490Z,2.39
2023-02-09T09:32:38.978Z,2.44
2023-02-09T09:35:05.910Z,2.22
2023-02-09T09:37:32.887Z,4.07
2023-02-09T09:40:00.242Z,2.77
2023-02-09T09:42:42.726Z,2.32
2023-02-09T09:45:16.232Z,1.57
2023-02-09T09:47:44.751Z,2.06
2023-02-09T09:50:19.052Z,2.69
2023-02-09T09:52:52.500Z,2.71
2023-02-09T09:55:30.579Z,2.91
2023-02-09T09:58:01.147Z,2.61
2023-02-09T10:00:33.157Z,2.37
2023-02-09T10:02:59.558Z,2.43
2023-02-09T10:05:35.305Z,3.16
2023-02-09T10:08:10.586Z,3.61
2023-02-09T10:11:05.070Z,3.06
2023-02-09T10:13:44.494Z,3.43
2023-02-09T10:16:34.431Z,4.28
2023-02-09T10:19:04.502Z,4.25
2023-02-09T10:21:34.341Z,4.53
2023-02-09T10:24:00.676Z,3.40
2023-02-09T10:26:37.867Z,3.60
2023-02-09T10:29:25.431Z,3.34
2023-02-09T10:32:23.571Z,4.22
2023-02-09T10:34:56.792Z,3.51
2023-02-09T10:37:32.963Z,4.99
2023-02-09T10:40:13.587Z,5.61
2023-02-09T10:42:49.323Z,4.81
2023-02-09T10:45:34.010Z,5.56
2023-02-09T10:48:08.409Z,6.14
2023-02-09T10:50:56.557Z,6.54
2023-02-09T10:53:33.005Z,8.72
2023-02-09T10:56:02.102Z,6.59
2023-02-09T10:58:35.105Z,6.67
2023-02-09T11:01:10.462Z,6.57
2023-02-09T11:03:56.167Z,6.44
2023-02-09T11:06:23.161Z,6.56
2023-02-09T11:08:59.799Z,6.00
2023-02-09T11:11:32.919Z,6.67
2023-02-09T11:14:00.300Z,5.82
2023-02-09T11:17:06.575Z,6.60
2023-02-09T11:19:54.896Z,6.35
2023-02-09T11:22:46.359Z,7.11
2023-02-09T11:25:25.028Z,6.13
2023-02-09T11:28:22.421Z,6.35
2023-02-09T11:31:14.193Z,5.69
2023-02-09T11:34:11.573Z,5.76
2023-02-09T11:37:00.452Z,5.72
2023-02-09T11:39:41.265Z,5.86
2023-02-09T11:42:53.109Z,5.92
2023-02-09T11:45:38.865Z,6.54
2023-02-09T11:48:19.790Z,5.88
2023-02-09T11:50:53.833Z,7.24
2023-02-09T11:53:23.541Z,6.04
2023-02-09T11:55:57.266Z,6.13
2023-02-09T11:58:45.600Z,5.93
2023-02-09T12:01:23.993Z,6.82
2023-02-09T12:04:00.156Z,7.96
2023-02-09T12:06:30.641Z,7.12
2023-02-09T12:09:21.184Z,6.88
2023-02-09T12:12:02.150Z,6.71
2023-02-09T12:14:45.726Z,6.82
2023-02-09T12:17:18.841Z,4.63
2023-02-09T12:19:56.033Z,6.29
2023-02-09T12:22:34.848Z,5.80
2023-02-09T12:25:53.881Z,5.42
2023-02-09T12:28:35.374Z,6.16
2023-02-09T12:31:05.968Z,7.06
2023-02-09T12:33:36.530Z,8.17
2023-02-09T12:36:10.741Z,7.89
2023-02-09T12:39:03.991Z,8.47
2023-02-09T12:41:45.475Z,8.34
2023-02-09T12:44:11.861Z,6.64
2023-02-09T12:46:44.251Z,7.93
2023-02-09T12:49:13.798Z,7.69
2023-02-09T12:51:43.414Z,8.42
2023-02-09T12:54:29.054Z,7.49
2023-02-09T12:56:56.356Z,7.16
2023-02-09T12:59:24.987Z,8.23
2023-02-09T13:02:07.187Z,8.04
2023-02-09T13:04:39.002Z,8.31
2023-02-09T13:07:15.450Z,7.38
2023-02-09T13:09:43.148Z,7.44
2023-02-09T13:12:15.774Z,8.74
2023-02-09T13:14:44.372Z,8.60
2023-02-09T13:17:32.382Z,9.08
2023-02-09T13:20:30.002Z,7.62
2023-02-09T13:23:28.049Z,7.91
2023-02-09T13:26:19.679Z,7.07
2023-02-09T13:28:46.520Z,6.35
2023-02-09T13:31:23.202Z,6.03
2023-02-09T13:33:55.880Z,7.34
2023-02-09T13:36:45.724Z,6.17
2023-02-09T13:39:23.976Z,7.71
2023-02-09T13:41:53.647Z,7.28
2023-02-09T13:44:22.993Z,7.04
2023-02-09T13:47:01.846Z,6.83
2023-02-09T13:49:30.195Z,5.62
2023-02-09T13:52:16.384Z,5.95
2023-02-09T13:54:43.797Z,5.49
2023-02-09T13:57:23.643Z,5.00
2023-02-09T13:59:50.617Z,5.45
2023-02-09T14:02:24.496Z,5.93
2023-02-09T14:04:56.709Z,5.76
2023-02-09T14:07:28.245Z,5.49
2023-02-09T14:10:11.341Z,5.44
2023-02-09T14:12:52.783Z,5.49
2023-02-09T14:15:42.826Z,4.67
2023-02-09T14:18:49.183Z,4.40
2023-02-09T14:21:17.541Z,4.04
2023-02-09T14:23:55.804Z,4.30
2023-02-09T14:26:27.989Z,3.72
2023-02-09T14:29:33.100Z,3.78
2023-02-09T14:32:31.911Z,3.85
2023-02-09T14:35:00.685Z,3.41
2023-02-09T14:37:30.281Z,3.49
2023-02-09T14:40:18.794Z,3.81
2023-02-09T14:43:06.834Z,3.49
2023-02-09T14:45:48.976Z,3.39
2023-02-09T14:48:19.741Z,3.91
2023-02-09T14:50:48.597Z,3.76
2023-02-09T14:53:16.580Z,3.53
2023-02-09T14:55:45.063Z,3.51
2023-02-09T14:58:29.333Z,3.37
2023-02-09T15:00:58.374Z,3.34
2023-02-09T15:03:25.091Z,3.37
2023-02-09T15:05:57.298Z,3.24
2023-02-09T15:08:25.814Z,3.14
2023-02-09T15:10:56.656Z,3.13
2023-02-09T15:13:23.999Z,3.25
2023-02-09T15:15:50.544Z,3.09
2023-02-09T15:18:22.380Z,2.96
2023-02-09T15:20:50.245Z,2.95
2023-02-09T15:23:17.525Z,3.11
2023-02-09T15:25:44.879Z,3.03
2023-02-09T15:28:31.240Z,2.90
2023-02-09T15:30:59.151Z,3.02
2023-02-09T15:33:27.495Z,3.15
2023-02-09T15:35:54.204Z,3.04
2023-02-09T15:38:20.839Z,3.07
2023-02-09T15:41:08.302Z,2.91
2023-02-09T15:43:54.212Z,3.00
2023-02-09T15:46:39.724Z,2.85
2023-02-09T15:49:07.355Z,2.81
2023-02-09T15:51:36.766Z,2.70
2023-02-09T15:54:09.207Z,2.69
2023-02-09T15:56:39.944Z,2.34
2023-02-09T15:59:06.708Z,2.22
2023-02-09T16:01:34.486Z,2.20
2023-02-09T16:04:13.573Z,2.25
2023-02-09T16:06:48.450Z,1.94
2023-02-09T16:09:21.888Z,1.91
2023-02-09T16:11:48.556Z,1.82
2023-02-09T16:14:20.279Z,1.88
2023-02-09T16:16:48.275Z,1.87
2023-02-09T16:19:15.593Z,1.89
2023-02-09T16:21:44.946Z,1.73
2023-02-09T16:24:23.072Z,1.64
2023-02-09T16:26:49.552Z,1.70
2023-02-09T16:29:16.171Z,1.79
2023-02-09T16:31:42.651Z,1.62
2023-02-09T16:34:15.153Z,1.57
2023-02-09T16:36:42.379Z,1.48
2023-02-09T16:39:27.208Z,1.44
2023-02-09T16:41:53.703Z,1.42
2023-02-09T16:44:23.427Z,1.48
2023-02-09T16:46:53.779Z,1.41
2023-02-09T16:49:31.918Z,1.40
2023-02-09T16:52:02.806Z,1.32
2023-02-09T16:54:33.037Z,1.29
2023-02-09T16:56:59.598Z,1.13
2023-02-09T16:59:26.265Z,1.16
2023-02-09T17:01:52.766Z,1.18
2023-02-09T17:04:19.362Z,1.20
2023-02-09T17:06:50.558Z,1.15
2023-02-09T17:09:17.152Z,1.05
2023-02-09T17:11:43.640Z,1.01
2023-02-09T17:14:11.203Z,1.08
2023-02-09T17:16:41.718Z,0.97
2023-02-09T17:19:16.004Z,0.94
2023-02-09T17:21:42.551Z,0.98
2023-02-09T17:24:14.897Z,0.94
2023-02-09T17:26:41.993Z,0.94
2023-02-09T17:29:09.293Z,0.96
2023-02-09T17:31:51.862Z,0.92
2023-02-09T17:34:20.634Z,0.88
2023-02-09T17:36:47.297Z,0.82
2023-02-09T17:39:14.034Z,0.91
2023-02-09T17:41:46.453Z,0.86
2023-02-09T17:44:39.124Z,0.87
2023-02-09T17:47:14.306Z,0.92
2023-02-09T17:49:41.472Z,0.94
2023-02-09T17:52:15.308Z,0.86
2023-02-09T17:54:41.723Z,0.78
2023-02-09T17:57:12.556Z,0.87
2023-02-09T17:59:39.009Z,0.89
2023-02-09T18:02:14.019Z,0.83
2023-02-09T18:04:42.685Z,0.88
2023-02-09T18:07:10.102Z,0.90
2023-02-09T18:09:36.625Z,0.87
2023-02-09T18:12:10.041Z,0.92
2023-02-09T18:14:36.673Z,0.89
2023-02-09T18:17:04.058Z,0.94
2023-02-09T18:19:31.012Z,1.02
2023-02-09T18:22:00.386Z,1.01
2023-02-09T18:24:29.790Z,0.97
2023-02-09T18:26:56.369Z,0.92
2023-02-09T18:29:26.148Z,0.93
2023-02-09T18:31:52.932Z,0.92
2023-02-09T18:34:19.460Z,1.05
2023-02-09T18:36:45.904Z,0.95
2023-02-09T18:39:15.169Z,1.04
2023-02-09T18:41:41.886Z,1.02
2023-02-09T18:44:08.396Z,0.99
2023-02-09T18:46:34.952Z,0.99
2023-02-09T18:49:03.539Z,0.87
2023-02-09T18:51:31.411Z,0.90
2023-02-09T18:53:58.044Z,0.89
2023-02-09T18:56:26.881Z,0.90
2023-02-09T18:58:53.868Z,0.83
2023-02-09T19:01:22.282Z,0.83
2023-02-09T19:03:53.238Z,0.77
2023-02-09T19:06:21.044Z,0.73
2023-02-09T19:08:50.263Z,0.79
2023-02-09T19:11:19.443Z,0.71
2023-02-09T19:14:05.345Z,0.73
2023-02-09T19:16:31.821Z,0.64
2023-02-09T19:18:59.139Z,0.59
2023-02-09T19:21:25.589Z,0.61
2023-02-09T19:23:53.949Z,0.57
2023-02-09T19:26:20.586Z,0.56
2023-02-09T19:28:48.250Z,0.56
2023-02-09T19:31:17.570Z,0.53
2023-02-09T19:33:44.417Z,0.48
2023-02-09T19:36:10.896Z,0.51
2023-02-09T19:38:37.344Z,0.50
2023-02-09T19:41:12.253Z,0.50
2023-02-09T19:43:39.979Z,0.53
2023-02-09T19:46:07.270Z,0.50
2023-02-09T19:48:33.777Z,0.52
2023-02-09T19:51:00.284Z,0.55
2023-02-09T19:53:27.649Z,0.54
2023-02-09T19:55:55.420Z,0.46
2023-02-09T19:58:22.359Z,0.45
2023-02-09T20:00:50.790Z,0.48
2023-02-09T20:03:18.963Z,0.46
2023-02-09T20:05:45.939Z,0.40
2023-02-09T20:08:16.396Z,0.36
2023-02-09T20:10:44.259Z,0.39
2023-02-09T20:13:14.050Z,0.36
2023-02-09T20:15:42.294Z,0.28
2023-02-09T20:18:09.066Z,0.36
2023-02-09T20:20:35.795Z,0.31
2023-02-09T20:23:06.148Z,0.30
2023-02-09T20:25:32.675Z,0.31
2023-02-09T20:27:59.254Z,0.26
2023-02-09T20:30:25.755Z,0.24
2023-02-09T20:32:52.194Z,0.21
2023-02-09T20:35:19.730Z,0.21
2023-02-09T20:37:46.188Z,0.20
2023-02-09T20:40:12.990Z,0.17
2023-02-09T20:42:58.665Z,0.17
2023-02-09T20:45:43.649Z,0.10
2023-02-09T20:48:10.085Z,0.09
2023-02-09T20:50:36.555Z,0.04
2023-02-09T20:53:03.066Z,0.03
2023-02-09T20:55:30.259Z,0.04
2023-02-09T20:57:57.297Z,0.07
2023-02-09T21:00:23.796Z,-0.01
2023-02-09T21:02:50.357Z,0.01
2023-02-09T21:05:17.098Z,-0.05
2023-02-09T21:07:44.024Z,-0.06
2023-02-09T21:10:12.955Z,-0.05
2023-02-09T21:12:39.638Z,-0.08
2023-02-09T21:15:06.609Z,-0.06
2023-02-09T21:17:33.161Z,-0.07
2023-02-09T21:20:00.043Z,-0.15
2023-02-09T21:22:26.710Z,-0.05
2023-02-09T21:24:53.122Z,-0.11
2023-02-09T21:27:20.446Z,-0.13
2023-02-09T21:29:47.000Z,-0.11
2023-02-09T21:32:15.364Z,-0.14
2023-02-09T21:34:42.795Z,-0.14
2023-02-09T21:37:13.016Z,-0.12
2023-02-09T21:39:40.381Z,-0.06
2023-02-09T21:42:25.971Z,-0.07
2023-02-09T21:44:54.483Z,-0.12
2023-02-09T21:47:28.731Z,-0.10
2023-02-09T21:49:55.671Z,-0.06
2023-02-09T21:52:22.401Z,-0.08
2023-02-09T21:54:49.258Z,-0.07
2023-02-09T21:57:15.776Z,-0.06
2023-02-09T21:59:42.245Z,-0.07
2023-02-09T22:02:13.967Z,-0.12
2023-02-09T22:04:40.777Z,-0.09
2023-02-09T22:07:07.284Z,-0.18
2023-02-09T22:09:33.700Z,-0.24
2023-02-09T22:12:00.895Z,-0.20
2023-02-09T22:14:28.713Z,-0.20
2023-02-09T22:16:55.411Z,-0.24
2023-02-09T22:19:23.567Z,-0.34
2023-02-09T22:21:50.359Z,-0.39
2023-02-09T22:24:17.862Z,-0.41
2023-02-09T22:26:45.039Z,-0.24
2023-02-09T22:29:13.433Z,-0.27
2023-02-09T22:31:40.500Z,-0.30
2023-02-09T22:34:07.638Z,-0.29
2023-02-09T22:36:35.174Z,-0.30
2023-02-09T22:39:02.791Z,-0.32
2023-02-09T22:41:29.865Z,-0.35
2023-02-09T22:44:01.867Z,-0.28
2023-02-09T22:46:36.635Z,-0.28
2023-02-09T22:49:06.207Z,-0.31
2023-02-09T22:51:34.508Z,-0.27
2023-02-09T22:54:01.830Z,-0.23
2023-02-09T22:56:30.729Z,-0.18
2023-02-09T22:58:58.981Z,-0.34
2023-02-09T23:01:26.629Z,-0.38
2023-02-09T23:03:54.001Z,-0.38
2023-02-09T23:06:27.095Z,-0.36
2023-02-09T23:08:55.783Z,-0.43
2023-02-09T23:11:22.715Z,-0.46
2023-02-09T23:13:51.076Z,-0.59
2023-02-09T23:16:25.103Z,-0.67
2023-02-09T23:18:56.411Z,-0.65
2023-02-09T23:21:25.818Z,-0.84
2023-02-09T23:23:53.234Z,-0.89
2023-02-09T23:26:20.758Z,-0.93
2023-02-09T23:28:47.510Z,-1.07
2023-02-09T23:31:16.713Z,-0.99
2023-02-09T23:33:43.397Z,-0.91
2023-02-09T23:36:13.838Z,-1.07
2023-02-09T23:38:41.840Z,-0.96
2023-02-09T23:41:11.094Z,-1.01
2023-02-09T23:43:38.953Z,-1.13
2023-02-09T23:46:08.453Z,-1.02
2023-02-09T23:48:35.282Z,-0.93
2023-02-09T23:51:04.138Z,-1.05
2023-02-09T23:53:31.589Z,-0.97
2023-02-09T23:56:03.790Z,-0.96
2023-02-09T23:58:36.864Z,-1.15
